Adventure of The Seas — C6SA3 — position and weather

sailwx.info

Track history (hours):
 
Tides and Currents Weather Stations Pressure Air Temp Water Temp Dewpoint Dewpoint Depression Visibility Wind Speed Wind Dir Waves Ship Positions

Adventure of The Seas

Operator: Royal Caribbean Cruises Ltd

Last reported at 2017-Aug-19 04:19 UTC. Time now 2017-Aug-19 14:51 UTC.
Position N 18°12' W 064°51'.

Type: Passenger vessel. MMSI: 311263000.

Date/timePositionNaut miles runAvg speedWind from/ knotsBaromVisibWave heightAir tempDewpointWater temp
2017-Aug-19 04:19N 18°12' W 064°51'6718.3
2017-Aug-19 00:38N 17°57' W 063°42'217.9
2017-Aug-19 00:30N 17°57' W 063°39'1018.4
2017-Aug-18 23:59N 17°54' W 063°30'918.2
2017-Aug-18 23:29N 17°51' W 063°20'918.6
2017-Aug-18 22:59N 17°48' W 063°11'1118.1
2017-Aug-18 22:24N 17°43' W 063°02'  
2017-Aug-13 02:27N 18°37' W 065°59'4 8.7
2017-Aug-13 02:00N 18°34' W 066°02'4 8.3
2017-Aug-13 01:30N 18°32' W 066°06'4 8.0
2017-Aug-13 01:00N 18°29' W 066°08'2 3.6
2017-Aug-13 00:28N 18°28' W 066°06'0 0.0
2017-Aug-12 23:52N 18°28' W 066°06'0 0.0
2017-Aug-12 23:10N 18°28' W 066°06'0 0.0
2017-Aug-12 22:01N 18°28' W 066°06'0 0.1
2017-Aug-12 21:58N 18°28' W 066°06'0 0.0
2017-Aug-12 21:16N 18°28' W 066°06'0 0.0
2017-Aug-12 20:52N 18°28' W 066°06'0 0.0
2017-Aug-12 20:22N 18°28' W 066°06'0 0.0
2017-Aug-12 19:58N 18°28' W 066°06'0 0.0
2017-Aug-12 19:25N 18°28' W 066°06'0 0.0
2017-Aug-12 18:58N 18°28' W 066°06'0 0.0
2017-Aug-12 18:28N 18°28' W 066°06'0 0.0
2017-Aug-12 17:34N 18°28' W 066°06'0 0.0
2017-Aug-12 17:04N 18°28' W 066°06'0 0.0
2017-Aug-12 16:46N 18°28' W 066°06'0 0.0
2017-Aug-12 16:28N 18°28' W 066°06'0 0.0
2017-Aug-12 15:40N 18°28' W 066°06'0 0.0
2017-Aug-12 13:52N 18°28' W 066°06'0 0.0
2017-Aug-12 12:52N 18°28' W 066°06'0 0.0
2017-Aug-12 11:58N 18°28' W 066°06'0 0.0
2017-Aug-12 11:22N 18°28' W 066°06'0 0.0
2017-Aug-12 10:52N 18°28' W 066°06'0 0.0
2017-Aug-12 10:16N 18°28' W 066°06'0 0.0
2017-Aug-12 09:55N 18°28' W 066°06'0 0.0
2017-Aug-12 09:28N 18°28' W 066°06'1 1.8
2017-Aug-12 09:01N 18°27' W 066°07'611.2
2017-Aug-12 08:28N 18°33' W 066°05'7613.0
2017-Aug-12 02:40N 18°08' W 064°50'16414.2
2017-Aug-11 15:06N 16°06' W 062°54'11514.6
2017-Aug-11 07:15N 14°43' W 061°33'414.4
2017-Aug-11 06:57N 14°40' W 061°29'714.8
2017-Aug-11 06:28N 14°35' W 061°24'715.3
2017-Aug-11 06:00N 14°31' W 061°18'714.8
2017-Aug-11 05:30N 14°27' W 061°12'714.4
2017-Aug-11 05:00N 14°22' W 061°06'714.8
2017-Aug-11 04:30N 14°18' W 060°60'714.7
2017-Aug-11 04:00N 14°13' W 060°54'714.9
2017-Aug-11 03:30N 14°09' W 060°48'  
Track history (hours):
 
Tides and Currents Weather Stations Pressure Air Temp Water Temp Dewpoint Dewpoint Depression Visibility Wind Speed Wind Dir Waves Ship Positions

Adventure of The Seas

Operator: Royal Caribbean Cruises Ltd

Last reported at 2017-Aug-19 04:19 UTC. Time now 2017-Aug-19 14:51 UTC.
Position N 18°12' W 064°51'.

Type: Passenger vessel. MMSI: 311263000.

Date/timePositionNaut miles runAvg speedWind from/ knotsBaromVisibWave heightAir tempDewpointWater temp
2017-Aug-19 04:19N 18°12' W 064°51'6718.3
2017-Aug-19 00:38N 17°57' W 063°42'217.9
2017-Aug-19 00:30N 17°57' W 063°39'1018.4
2017-Aug-18 23:59N 17°54' W 063°30'918.2
2017-Aug-18 23:29N 17°51' W 063°20'918.6
2017-Aug-18 22:59N 17°48' W 063°11'1118.1
2017-Aug-18 22:24N 17°43' W 063°02'  
2017-Aug-13 02:27N 18°37' W 065°59'4 8.7
2017-Aug-13 02:00N 18°34' W 066°02'4 8.3
2017-Aug-13 01:30N 18°32' W 066°06'4 8.0
2017-Aug-13 01:00N 18°29' W 066°08'2 3.6
2017-Aug-13 00:28N 18°28' W 066°06'0 0.0
2017-Aug-12 23:52N 18°28' W 066°06'0 0.0
2017-Aug-12 23:10N 18°28' W 066°06'0 0.0
2017-Aug-12 22:01N 18°28' W 066°06'0 0.1
2017-Aug-12 21:58N 18°28' W 066°06'0 0.0
2017-Aug-12 21:16N 18°28' W 066°06'0 0.0
2017-Aug-12 20:52N 18°28' W 066°06'0 0.0
2017-Aug-12 20:22N 18°28' W 066°06'0 0.0
2017-Aug-12 19:58N 18°28' W 066°06'0 0.0
2017-Aug-12 19:25N 18°28' W 066°06'0 0.0
2017-Aug-12 18:58N 18°28' W 066°06'0 0.0
2017-Aug-12 18:28N 18°28' W 066°06'0 0.0
2017-Aug-12 17:34N 18°28' W 066°06'0 0.0
2017-Aug-12 17:04N 18°28' W 066°06'0 0.0
2017-Aug-12 16:46N 18°28' W 066°06'0 0.0
2017-Aug-12 16:28N 18°28' W 066°06'0 0.0
2017-Aug-12 15:40N 18°28' W 066°06'0 0.0
2017-Aug-12 13:52N 18°28' W 066°06'0 0.0
2017-Aug-12 12:52N 18°28' W 066°06'0 0.0
2017-Aug-12 11:58N 18°28' W 066°06'0 0.0
2017-Aug-12 11:22N 18°28' W 066°06'0 0.0
2017-Aug-12 10:52N 18°28' W 066°06'0 0.0
2017-Aug-12 10:16N 18°28' W 066°06'0 0.0
2017-Aug-12 09:55N 18°28' W 066°06'0 0.0
2017-Aug-12 09:28N 18°28' W 066°06'1 1.8
2017-Aug-12 09:01N 18°27' W 066°07'611.2
2017-Aug-12 08:28N 18°33' W 066°05'7613.0
2017-Aug-12 02:40N 18°08' W 064°50'16414.2
2017-Aug-11 15:06N 16°06' W 062°54'11514.6
2017-Aug-11 07:15N 14°43' W 061°33'414.4
2017-Aug-11 06:57N 14°40' W 061°29'714.8
2017-Aug-11 06:28N 14°35' W 061°24'715.3
2017-Aug-11 06:00N 14°31' W 061°18'714.8
2017-Aug-11 05:30N 14°27' W 061°12'714.4
2017-Aug-11 05:00N 14°22' W 061°06'714.8
2017-Aug-11 04:30N 14°18' W 060°60'714.7
2017-Aug-11 04:00N 14°13' W 060°54'714.9
2017-Aug-11 03:30N 14°09' W 060°48'  

Dump ship's entire track history